sensor_id;sensor_type;location;lat;lon;timestamp;P1;durP1;ratioP1;P2;durP2;ratioP2
75930;SDS011;64609;47.052;15.462;2023-08-31T00:02:05;2.08;;;1.00;;
75930;SDS011;64609;47.052;15.462;2023-08-31T00:04:31;2.20;;;1.17;;
75930;SDS011;64609;47.052;15.462;2023-08-31T00:06:57;3.28;;;1.10;;
75930;SDS011;64609;47.052;15.462;2023-08-31T00:09:23;2.45;;;1.35;;
75930;SDS011;64609;47.052;15.462;2023-08-31T00:11:49;2.55;;;1.30;;
75930;SDS011;64609;47.052;15.462;2023-08-31T00:14:16;4.07;;;1.42;;
75930;SDS011;64609;47.052;15.462;2023-08-31T00:16:43;2.40;;;1.20;;
75930;SDS011;64609;47.052;15.462;2023-08-31T00:19:11;1.50;;;1.30;;
75930;SDS011;64609;47.052;15.462;2023-08-31T00:21:37;1.55;;;1.20;;
75930;SDS011;64609;47.052;15.462;2023-08-31T00:24:03;2.85;;;1.60;;
75930;SDS011;64609;47.052;15.462;2023-08-31T00:26:29;2.20;;;1.40;;
75930;SDS011;64609;47.052;15.462;2023-08-31T00:28:56;2.00;;;1.35;;
75930;SDS011;64609;47.052;15.462;2023-08-31T00:31:22;2.72;;;1.30;;
75930;SDS011;64609;47.052;15.462;2023-08-31T00:33:47;3.75;;;1.40;;
75930;SDS011;64609;47.052;15.462;2023-08-31T00:36:13;2.35;;;1.40;;
75930;SDS011;64609;47.052;15.462;2023-08-31T00:38:39;2.63;;;1.50;;
75930;SDS011;64609;47.052;15.462;2023-08-31T00:41:05;3.00;;;1.40;;
75930;SDS011;64609;47.052;15.462;2023-08-31T00:43:31;2.17;;;1.60;;
75930;SDS011;64609;47.052;15.462;2023-08-31T00:45:57;2.92;;;1.42;;
75930;SDS011;64609;47.052;15.462;2023-08-31T00:48:23;4.03;;;1.73;;
75930;SDS011;64609;47.052;15.462;2023-08-31T00:50:49;3.20;;;1.70;;
75930;SDS011;64609;47.052;15.462;2023-08-31T00:53:16;2.42;;;1.70;;
75930;SDS011;64609;47.052;15.462;2023-08-31T00:55:43;2.72;;;1.73;;
75930;SDS011;64609;47.052;15.462;2023-08-31T00:58:09;4.00;;;1.73;;
75930;SDS011;64609;47.052;15.462;2023-08-31T01:03:23;3.50;;;2.00;;
75930;SDS011;64609;47.052;15.462;2023-08-31T01:14:17;4.57;;;2.30;;
75930;SDS011;64609;47.052;15.462;2023-08-31T01:16:48;4.80;;;2.22;;
75930;SDS011;64609;47.052;15.462;2023-08-31T01:22:09;7.38;;;2.33;;
75930;SDS011;64609;47.052;15.462;2023-08-31T01:24:39;3.20;;;2.20;;
75930;SDS011;64609;47.052;15.462;2023-08-31T01:27:06;2.35;;;2.10;;
75930;SDS011;64609;47.052;15.462;2023-08-31T01:29:32;6.22;;;2.33;;
75930;SDS011;64609;47.052;15.462;2023-08-31T01:31:58;6.10;;;2.30;;
75930;SDS011;64609;47.052;15.462;2023-08-31T01:34:23;5.10;;;2.28;;
75930;SDS011;64609;47.052;15.462;2023-08-31T01:36:51;3.65;;;2.30;;
75930;SDS011;64609;47.052;15.462;2023-08-31T01:39:33;5.63;;;2.83;;
75930;SDS011;64609;47.052;15.462;2023-08-31T01:42:06;4.00;;;2.65;;
75930;SDS011;64609;47.052;15.462;2023-08-31T01:44:34;5.75;;;2.30;;
75930;SDS011;64609;47.052;15.462;2023-08-31T01:47:03;5.80;;;2.40;;
75930;SDS011;64609;47.052;15.462;2023-08-31T01:49:38;4.53;;;2.28;;
75930;SDS011;64609;47.052;15.462;2023-08-31T01:52:05;4.65;;;2.45;;
75930;SDS011;64609;47.052;15.462;2023-08-31T01:54:31;3.35;;;2.25;;
75930;SDS011;64609;47.052;15.462;2023-08-31T01:56:57;3.63;;;2.25;;
75930;SDS011;64609;47.052;15.462;2023-08-31T01:59:23;2.67;;;2.20;;
75930;SDS011;64609;47.052;15.462;2023-08-31T02:01:49;7.75;;;2.65;;
75930;SDS011;64609;47.052;15.462;2023-08-31T02:04:14;4.20;;;2.40;;
75930;SDS011;64609;47.052;15.462;2023-08-31T02:06:40;4.20;;;2.42;;
75930;SDS011;64609;47.052;15.462;2023-08-31T02:09:06;7.53;;;2.67;;
75930;SDS011;64609;47.052;15.462;2023-08-31T02:11:32;3.45;;;2.42;;
75930;SDS011;64609;47.052;15.462;2023-08-31T02:14:01;4.85;;;2.65;;
75930;SDS011;64609;47.052;15.462;2023-08-31T02:16:27;4.43;;;2.42;;
75930;SDS011;64609;47.052;15.462;2023-08-31T02:18:53;6.15;;;2.67;;
75930;SDS011;64609;47.052;15.462;2023-08-31T02:21:18;4.43;;;2.83;;
75930;SDS011;64609;47.052;15.462;2023-08-31T02:23:45;2.72;;;2.45;;
75930;SDS011;64609;47.052;15.462;2023-08-31T02:26:11;8.13;;;2.50;;
75930;SDS011;64609;47.052;15.462;2023-08-31T02:28:36;3.65;;;2.50;;
75930;SDS011;64609;47.052;15.462;2023-08-31T02:31:02;6.07;;;2.33;;
75930;SDS011;64609;47.052;15.462;2023-08-31T02:33:28;6.70;;;2.55;;
75930;SDS011;64609;47.052;15.462;2023-08-31T02:35:54;6.43;;;2.25;;
75930;SDS011;64609;47.052;15.462;2023-08-31T02:38:20;8.45;;;2.55;;
75930;SDS011;64609;47.052;15.462;2023-08-31T02:40:46;4.68;;;2.80;;
75930;SDS011;64609;47.052;15.462;2023-08-31T02:43:13;4.25;;;2.63;;
75930;SDS011;64609;47.052;15.462;2023-08-31T02:45:38;4.68;;;2.55;;
75930;SDS011;64609;47.052;15.462;2023-08-31T02:48:06;2.95;;;2.50;;
75930;SDS011;64609;47.052;15.462;2023-08-31T02:50:33;4.15;;;2.30;;
75930;SDS011;64609;47.052;15.462;2023-08-31T02:52:59;5.15;;;2.40;;
75930;SDS011;64609;47.052;15.462;2023-08-31T02:55:25;3.05;;;2.50;;
75930;SDS011;64609;47.052;15.462;2023-08-31T02:57:51;5.35;;;2.70;;
75930;SDS011;64609;47.052;15.462;2023-08-31T03:00:17;7.75;;;2.90;;
75930;SDS011;64609;47.052;15.462;2023-08-31T03:02:46;7.60;;;2.90;;
75930;SDS011;64609;47.052;15.462;2023-08-31T03:05:12;3.45;;;2.70;;
75930;SDS011;64609;47.052;15.462;2023-08-31T03:07:38;4.90;;;2.80;;
75930;SDS011;64609;47.052;15.462;2023-08-31T03:10:04;4.55;;;2.63;;
75930;SDS011;64609;47.052;15.462;2023-08-31T03:12:30;8.27;;;3.17;;
75930;SDS011;64609;47.052;15.462;2023-08-31T03:14:56;3.75;;;2.40;;
75930;SDS011;64609;47.052;15.462;2023-08-31T03:17:21;6.45;;;2.80;;
75930;SDS011;64609;47.052;15.462;2023-08-31T03:19:47;3.83;;;2.90;;
75930;SDS011;64609;47.052;15.462;2023-08-31T03:22:13;4.82;;;2.85;;
75930;SDS011;64609;47.052;15.462;2023-08-31T03:24:39;5.57;;;2.60;;
75930;SDS011;64609;47.052;15.462;2023-08-31T03:27:05;3.58;;;2.60;;
75930;SDS011;64609;47.052;15.462;2023-08-31T03:29:31;4.35;;;2.65;;
75930;SDS011;64609;47.052;15.462;2023-08-31T03:31:57;5.85;;;2.97;;
75930;SDS011;64609;47.052;15.462;2023-08-31T03:34:28;3.58;;;2.80;;
75930;SDS011;64609;47.052;15.462;2023-08-31T03:36:57;5.90;;;2.95;;
75930;SDS011;64609;47.052;15.462;2023-08-31T03:39:23;11.30;;;3.50;;
75930;SDS011;64609;47.052;15.462;2023-08-31T03:41:49;5.55;;;2.78;;
75930;SDS011;64609;47.052;15.462;2023-08-31T03:44:15;7.32;;;3.10;;
75930;SDS011;64609;47.052;15.462;2023-08-31T03:46:41;7.30;;;3.30;;
75930;SDS011;64609;47.052;15.462;2023-08-31T03:49:07;7.25;;;3.00;;
75930;SDS011;64609;47.052;15.462;2023-08-31T03:51:33;12.52;;;2.72;;
75930;SDS011;64609;47.052;15.462;2023-08-31T03:53:59;4.18;;;2.70;;
75930;SDS011;64609;47.052;15.462;2023-08-31T03:56:25;4.80;;;3.15;;
75930;SDS011;64609;47.052;15.462;2023-08-31T03:58:51;5.70;;;3.22;;
75930;SDS011;64609;47.052;15.462;2023-08-31T04:01:17;5.40;;;3.00;;
75930;SDS011;64609;47.052;15.462;2023-08-31T04:03:43;4.00;;;2.45;;
75930;SDS011;64609;47.052;15.462;2023-08-31T04:06:09;3.83;;;2.65;;
75930;SDS011;64609;47.052;15.462;2023-08-31T04:08:34;4.20;;;2.90;;
75930;SDS011;64609;47.052;15.462;2023-08-31T04:11:00;5.60;;;2.83;;
75930;SDS011;64609;47.052;15.462;2023-08-31T04:13:26;5.13;;;3.00;;
75930;SDS011;64609;47.052;15.462;2023-08-31T04:15:52;3.28;;;2.67;;
75930;SDS011;64609;47.052;15.462;2023-08-31T04:18:18;4.55;;;2.70;;
75930;SDS011;64609;47.052;15.462;2023-08-31T04:20:50;4.15;;;2.85;;
75930;SDS011;64609;47.052;15.462;2023-08-31T04:23:17;4.45;;;3.05;;
75930;SDS011;64609;47.052;15.462;2023-08-31T04:25:46;7.87;;;2.90;;
75930;SDS011;64609;47.052;15.462;2023-08-31T04:28:12;5.50;;;2.70;;
75930;SDS011;64609;47.052;15.462;2023-08-31T04:30:41;5.38;;;3.15;;
75930;SDS011;64609;47.052;15.462;2023-08-31T04:33:07;7.72;;;3.15;;
75930;SDS011;64609;47.052;15.462;2023-08-31T04:35:33;4.47;;;2.70;;
75930;SDS011;64609;47.052;15.462;2023-08-31T04:37:59;3.95;;;2.80;;
75930;SDS011;64609;47.052;15.462;2023-08-31T04:40:25;4.45;;;2.97;;
75930;SDS011;64609;47.052;15.462;2023-08-31T04:42:52;5.82;;;3.00;;
75930;SDS011;64609;47.052;15.462;2023-08-31T04:45:18;6.93;;;3.00;;
75930;SDS011;64609;47.052;15.462;2023-08-31T04:47:44;3.15;;;2.70;;
75930;SDS011;64609;47.052;15.462;2023-08-31T04:50:10;5.15;;;2.90;;
75930;SDS011;64609;47.052;15.462;2023-08-31T04:52:35;6.18;;;2.53;;
75930;SDS011;64609;47.052;15.462;2023-08-31T04:55:01;7.80;;;2.88;;
75930;SDS011;64609;47.052;15.462;2023-08-31T04:57:30;6.35;;;3.15;;
75930;SDS011;64609;47.052;15.462;2023-08-31T04:59:55;6.18;;;3.10;;
75930;SDS011;64609;47.052;15.462;2023-08-31T05:02:21;5.10;;;2.92;;
75930;SDS011;64609;47.052;15.462;2023-08-31T05:04:46;3.65;;;2.97;;
75930;SDS011;64609;47.052;15.462;2023-08-31T05:07:12;4.07;;;2.60;;
75930;SDS011;64609;47.052;15.462;2023-08-31T05:09:38;3.45;;;2.80;;
75930;SDS011;64609;47.052;15.462;2023-08-31T05:12:04;12.90;;;3.50;;
75930;SDS011;64609;47.052;15.462;2023-08-31T05:14:30;3.97;;;2.53;;
75930;SDS011;64609;47.052;15.462;2023-08-31T05:16:55;9.70;;;2.83;;
75930;SDS011;64609;47.052;15.462;2023-08-31T05:19:21;11.77;;;3.13;;
75930;SDS011;64609;47.052;15.462;2023-08-31T05:21:47;7.00;;;3.17;;
75930;SDS011;64609;47.052;15.462;2023-08-31T05:24:12;5.22;;;2.90;;
75930;SDS011;64609;47.052;15.462;2023-08-31T05:26:38;3.40;;;2.97;;
75930;SDS011;64609;47.052;15.462;2023-08-31T05:29:04;8.95;;;3.15;;
75930;SDS011;64609;47.052;15.462;2023-08-31T05:31:30;5.85;;;3.15;;
75930;SDS011;64609;47.052;15.462;2023-08-31T05:33:56;5.22;;;3.30;;
75930;SDS011;64609;47.052;15.462;2023-08-31T05:36:22;4.03;;;3.53;;
75930;SDS011;64609;47.052;15.462;2023-08-31T05:38:47;6.85;;;3.90;;
75930;SDS011;64609;47.052;15.462;2023-08-31T05:41:13;8.18;;;4.15;;
75930;SDS011;64609;47.052;15.462;2023-08-31T05:43:39;5.00;;;3.58;;
75930;SDS011;64609;47.052;15.462;2023-08-31T05:46:08;6.80;;;3.80;;
75930;SDS011;64609;47.052;15.462;2023-08-31T05:48:34;4.88;;;3.30;;
75930;SDS011;64609;47.052;15.462;2023-08-31T05:51:01;13.77;;;3.95;;
75930;SDS011;64609;47.052;15.462;2023-08-31T05:53:28;11.60;;;4.45;;
75930;SDS011;64609;47.052;15.462;2023-08-31T05:55:55;8.55;;;4.22;;
75930;SDS011;64609;47.052;15.462;2023-08-31T05:58:29;7.50;;;3.92;;
75930;SDS011;64609;47.052;15.462;2023-08-31T06:00:56;10.10;;;3.90;;
75930;SDS011;64609;47.052;15.462;2023-08-31T06:03:22;5.75;;;3.60;;
75930;SDS011;64609;47.052;15.462;2023-08-31T06:05:47;9.95;;;4.35;;
75930;SDS011;64609;47.052;15.462;2023-08-31T06:08:13;12.65;;;4.45;;
75930;SDS011;64609;47.052;15.462;2023-08-31T06:10:39;6.15;;;4.03;;
75930;SDS011;64609;47.052;15.462;2023-08-31T06:13:04;7.90;;;5.05;;
75930;SDS011;64609;47.052;15.462;2023-08-31T06:15:30;7.57;;;4.32;;
75930;SDS011;64609;47.052;15.462;2023-08-31T06:17:56;9.30;;;4.90;;
75930;SDS011;64609;47.052;15.462;2023-08-31T06:20:21;8.88;;;4.63;;
75930;SDS011;64609;47.052;15.462;2023-08-31T06:22:47;10.05;;;4.55;;
75930;SDS011;64609;47.052;15.462;2023-08-31T06:25:13;5.60;;;4.07;;
75930;SDS011;64609;47.052;15.462;2023-08-31T06:27:41;8.43;;;4.05;;
75930;SDS011;64609;47.052;15.462;2023-08-31T06:30:08;9.60;;;4.68;;
75930;SDS011;64609;47.052;15.462;2023-08-31T06:32:37;7.45;;;4.40;;
75930;SDS011;64609;47.052;15.462;2023-08-31T06:35:03;11.13;;;4.80;;
75930;SDS011;64609;47.052;15.462;2023-08-31T06:37:28;11.63;;;5.18;;
75930;SDS011;64609;47.052;15.462;2023-08-31T06:39:54;7.25;;;4.82;;
75930;SDS011;64609;47.052;15.462;2023-08-31T06:42:20;7.82;;;4.85;;
75930;SDS011;64609;47.052;15.462;2023-08-31T06:44:46;9.23;;;5.03;;
75930;SDS011;64609;47.052;15.462;2023-08-31T06:47:11;8.07;;;4.40;;
75930;SDS011;64609;47.052;15.462;2023-08-31T06:49:38;5.45;;;4.50;;
75930;SDS011;64609;47.052;15.462;2023-08-31T06:52:04;6.43;;;4.65;;
75930;SDS011;64609;47.052;15.462;2023-08-31T06:54:32;8.77;;;4.30;;
75930;SDS011;64609;47.052;15.462;2023-08-31T06:56:58;6.93;;;3.97;;
75930;SDS011;64609;47.052;15.462;2023-08-31T06:59:24;5.90;;;3.63;;
75930;SDS011;64609;47.052;15.462;2023-08-31T07:01:50;6.88;;;4.20;;
75930;SDS011;64609;47.052;15.462;2023-08-31T07:04:15;8.93;;;4.75;;
75930;SDS011;64609;47.052;15.462;2023-08-31T07:06:41;8.15;;;4.20;;
75930;SDS011;64609;47.052;15.462;2023-08-31T07:09:07;7.00;;;4.20;;
75930;SDS011;64609;47.052;15.462;2023-08-31T07:11:33;6.30;;;4.28;;
75930;SDS011;64609;47.052;15.462;2023-08-31T07:13:59;7.15;;;4.22;;
75930;SDS011;64609;47.052;15.462;2023-08-31T07:16:25;11.50;;;3.72;;
75930;SDS011;64609;47.052;15.462;2023-08-31T07:18:51;7.60;;;3.50;;
75930;SDS011;64609;47.052;15.462;2023-08-31T07:21:16;7.03;;;3.67;;
75930;SDS011;64609;47.052;15.462;2023-08-31T07:23:42;10.93;;;4.10;;
75930;SDS011;64609;47.052;15.462;2023-08-31T07:26:08;6.72;;;3.58;;
75930;SDS011;64609;47.052;15.462;2023-08-31T07:28:34;9.63;;;3.50;;
75930;SDS011;64609;47.052;15.462;2023-08-31T07:31:09;4.38;;;3.00;;
75930;SDS011;64609;47.052;15.462;2023-08-31T07:33:35;6.50;;;3.90;;
75930;SDS011;64609;47.052;15.462;2023-08-31T07:36:01;7.95;;;3.83;;
75930;SDS011;64609;47.052;15.462;2023-08-31T07:38:29;11.95;;;4.20;;
75930;SDS011;64609;47.052;15.462;2023-08-31T07:40:56;6.50;;;3.58;;
75930;SDS011;64609;47.052;15.462;2023-08-31T07:43:22;8.32;;;3.67;;
75930;SDS011;64609;47.052;15.462;2023-08-31T07:45:48;8.93;;;3.20;;
75930;SDS011;64609;47.052;15.462;2023-08-31T07:48:14;3.00;;;2.63;;
75930;SDS011;64609;47.052;15.462;2023-08-31T07:50:40;3.40;;;2.40;;
75930;SDS011;64609;47.052;15.462;2023-08-31T07:53:07;8.35;;;2.60;;
75930;SDS011;64609;47.052;15.462;2023-08-31T07:55:33;5.32;;;2.45;;
75930;SDS011;64609;47.052;15.462;2023-08-31T07:57:58;4.28;;;2.22;;
75930;SDS011;64609;47.052;15.462;2023-08-31T08:00:24;4.13;;;2.08;;
75930;SDS011;64609;47.052;15.462;2023-08-31T08:02:49;3.83;;;2.03;;
75930;SDS011;64609;47.052;15.462;2023-08-31T08:05:15;4.70;;;2.28;;
75930;SDS011;64609;47.052;15.462;2023-08-31T08:07:41;4.05;;;2.75;;
75930;SDS011;64609;47.052;15.462;2023-08-31T08:10:08;8.55;;;2.03;;
75930;SDS011;64609;47.052;15.462;2023-08-31T08:12:37;5.63;;;2.22;;
75930;SDS011;64609;47.052;15.462;2023-08-31T08:15:13;4.88;;;1.83;;
75930;SDS011;64609;47.052;15.462;2023-08-31T08:17:39;7.88;;;2.00;;
75930;SDS011;64609;47.052;15.462;2023-08-31T08:20:05;2.80;;;1.80;;
75930;SDS011;64609;47.052;15.462;2023-08-31T08:22:32;5.25;;;2.22;;
75930;SDS011;64609;47.052;15.462;2023-08-31T08:24:57;4.63;;;2.00;;
75930;SDS011;64609;47.052;15.462;2023-08-31T08:27:23;5.20;;;1.98;;
75930;SDS011;64609;47.052;15.462;2023-08-31T08:29:49;3.97;;;1.90;;
75930;SDS011;64609;47.052;15.462;2023-08-31T08:32:15;3.00;;;1.73;;
75930;SDS011;64609;47.052;15.462;2023-08-31T08:34:40;8.60;;;2.22;;
75930;SDS011;64609;47.052;15.462;2023-08-31T08:37:06;6.20;;;1.90;;
75930;SDS011;64609;47.052;15.462;2023-08-31T08:39:31;4.63;;;1.85;;
75930;SDS011;64609;47.052;15.462;2023-08-31T08:41:57;9.00;;;1.90;;
75930;SDS011;64609;47.052;15.462;2023-08-31T08:44:24;3.33;;;1.63;;
75930;SDS011;64609;47.052;15.462;2023-08-31T08:46:51;3.95;;;1.60;;
75930;SDS011;64609;47.052;15.462;2023-08-31T08:49:17;3.83;;;1.55;;
75930;SDS011;64609;47.052;15.462;2023-08-31T08:51:44;4.25;;;1.55;;
75930;SDS011;64609;47.052;15.462;2023-08-31T08:54:12;3.28;;;1.25;;
75930;SDS011;64609;47.052;15.462;2023-08-31T08:56:38;1.73;;;1.50;;
75930;SDS011;64609;47.052;15.462;2023-08-31T08:59:05;4.75;;;1.58;;
75930;SDS011;64609;47.052;15.462;2023-08-31T09:01:31;1.63;;;1.40;;
75930;SDS011;64609;47.052;15.462;2023-08-31T09:04:00;2.40;;;1.60;;
75930;SDS011;64609;47.052;15.462;2023-08-31T09:06:27;4.82;;;1.52;;
75930;SDS011;64609;47.052;15.462;2023-08-31T09:08:56;3.53;;;1.92;;
75930;SDS011;64609;47.052;15.462;2023-08-31T09:11:22;3.60;;;1.45;;
75930;SDS011;64609;47.052;15.462;2023-08-31T09:13:48;3.90;;;1.40;;
75930;SDS011;64609;47.052;15.462;2023-08-31T09:16:30;3.58;;;1.58;;
75930;SDS011;64609;47.052;15.462;2023-08-31T09:18:56;5.38;;;1.50;;
75930;SDS011;64609;47.052;15.462;2023-08-31T09:21:44;3.88;;;1.40;;
75930;SDS011;64609;47.052;15.462;2023-08-31T09:24:11;6.82;;;1.85;;
75930;SDS011;64609;47.052;15.462;2023-08-31T09:26:43;1.60;;;1.42;;
75930;SDS011;64609;47.052;15.462;2023-08-31T09:29:10;1.73;;;1.30;;
75930;SDS011;64609;47.052;15.462;2023-08-31T09:31:36;1.48;;;1.27;;
75930;SDS011;64609;47.052;15.462;2023-08-31T09:34:02;4.40;;;1.40;;
75930;SDS011;64609;47.052;15.462;2023-08-31T09:36:28;2.95;;;1.30;;
75930;SDS011;64609;47.052;15.462;2023-08-31T09:38:56;3.88;;;1.35;;
75930;SDS011;64609;47.052;15.462;2023-08-31T09:41:23;3.08;;;1.80;;
75930;SDS011;64609;47.052;15.462;2023-08-31T09:43:49;7.55;;;1.50;;
75930;SDS011;64609;47.052;15.462;2023-08-31T09:46:15;2.88;;;1.40;;
75930;SDS011;64609;47.052;15.462;2023-08-31T09:48:42;2.13;;;1.48;;
75930;SDS011;64609;47.052;15.462;2023-08-31T09:51:09;1.10;;;1.00;;
75930;SDS011;64609;47.052;15.462;2023-08-31T09:53:36;5.10;;;1.33;;
75930;SDS011;64609;47.052;15.462;2023-08-31T09:56:04;2.25;;;1.20;;
75930;SDS011;64609;47.052;15.462;2023-08-31T09:58:31;2.17;;;1.20;;
75930;SDS011;64609;47.052;15.462;2023-08-31T10:00:58;2.08;;;1.27;;
75930;SDS011;64609;47.052;15.462;2023-08-31T10:03:25;2.10;;;1.30;;
75930;SDS011;64609;47.052;15.462;2023-08-31T10:05:52;2.10;;;1.23;;
75930;SDS011;64609;47.052;15.462;2023-08-31T10:08:20;3.25;;;1.30;;
75930;SDS011;64609;47.052;15.462;2023-08-31T10:10:46;2.85;;;1.38;;
75930;SDS011;64609;47.052;15.462;2023-08-31T10:13:12;3.38;;;1.30;;
75930;SDS011;64609;47.052;15.462;2023-08-31T10:15:38;2.88;;;1.30;;
75930;SDS011;64609;47.052;15.462;2023-08-31T10:18:06;1.77;;;1.30;;
75930;SDS011;64609;47.052;15.462;2023-08-31T10:20:32;2.63;;;1.50;;
75930;SDS011;64609;47.052;15.462;2023-08-31T10:22:59;2.45;;;1.42;;
75930;SDS011;64609;47.052;15.462;2023-08-31T10:28:22;3.25;;;1.20;;
75930;SDS011;64609;47.052;15.462;2023-08-31T10:33:30;4.28;;;1.30;;
75930;SDS011;64609;47.052;15.462;2023-08-31T10:36:00;1.73;;;1.30;;
75930;SDS011;64609;47.052;15.462;2023-08-31T10:38:30;1.67;;;1.35;;
75930;SDS011;64609;47.052;15.462;2023-08-31T10:48:58;1.85;;;1.30;;
75930;SDS011;64609;47.052;15.462;2023-08-31T10:51:25;3.58;;;1.20;;
75930;SDS011;64609;47.052;15.462;2023-08-31T10:54:03;2.35;;;1.30;;
75930;SDS011;64609;47.052;15.462;2023-08-31T10:59:43;5.55;;;1.25;;
75930;SDS011;64609;47.052;15.462;2023-08-31T11:02:57;5.28;;;1.40;;
75930;SDS011;64609;47.052;15.462;2023-08-31T11:05:07;2.28;;;1.23;;
75930;SDS011;64609;47.052;15.462;2023-08-31T11:07:40;4.85;;;1.35;;
75930;SDS011;64609;47.052;15.462;2023-08-31T11:12:35;3.50;;;1.50;;
75930;SDS011;64609;47.052;15.462;2023-08-31T11:15:00;2.08;;;1.27;;
75930;SDS011;64609;47.052;15.462;2023-08-31T11:17:28;1.83;;;1.48;;
75930;SDS011;64609;47.052;15.462;2023-08-31T11:19:54;1.88;;;1.30;;
75930;SDS011;64609;47.052;15.462;2023-08-31T11:22:21;2.97;;;1.77;;
75930;SDS011;64609;47.052;15.462;2023-08-31T11:24:46;7.60;;;1.35;;
75930;SDS011;64609;47.052;15.462;2023-08-31T11:27:12;2.85;;;1.40;;
75930;SDS011;64609;47.052;15.462;2023-08-31T11:29:44;2.42;;;1.58;;
75930;SDS011;64609;47.052;15.462;2023-08-31T11:32:10;3.72;;;1.40;;
75930;SDS011;64609;47.052;15.462;2023-08-31T11:34:39;22.83;;;2.35;;
75930;SDS011;64609;47.052;15.462;2023-08-31T11:37:07;2.13;;;1.30;;
75930;SDS011;64609;47.052;15.462;2023-08-31T11:39:32;2.88;;;1.45;;
75930;SDS011;64609;47.052;15.462;2023-08-31T11:41:58;7.05;;;1.30;;
75930;SDS011;64609;47.052;15.462;2023-08-31T11:44:24;2.08;;;1.30;;
75930;SDS011;64609;47.052;15.462;2023-08-31T11:46:50;1.80;;;1.40;;
75930;SDS011;64609;47.052;15.462;2023-08-31T11:49:17;1.98;;;1.20;;
75930;SDS011;64609;47.052;15.462;2023-08-31T11:51:44;3.00;;;1.40;;
75930;SDS011;64609;47.052;15.462;2023-08-31T11:54:10;2.22;;;1.30;;
75930;SDS011;64609;47.052;15.462;2023-08-31T12:01:42;1.77;;;1.33;;
75930;SDS011;64609;47.052;15.462;2023-08-31T12:04:19;2.55;;;1.40;;
75930;SDS011;64609;47.052;15.462;2023-08-31T12:06:50;4.07;;;1.60;;
75930;SDS011;64609;47.052;15.462;2023-08-31T12:09:18;3.65;;;1.40;;
75930;SDS011;64609;47.052;15.462;2023-08-31T12:11:51;1.67;;;1.40;;
75930;SDS011;64609;47.052;15.462;2023-08-31T12:14:23;4.05;;;1.42;;
75930;SDS011;64609;47.052;15.462;2023-08-31T12:16:51;4.07;;;1.90;;
75930;SDS011;64609;47.052;15.462;2023-08-31T12:19:18;2.85;;;1.48;;
75930;SDS011;64609;47.052;15.462;2023-08-31T12:21:44;4.57;;;1.33;;
75930;SDS011;64609;47.052;15.462;2023-08-31T12:24:11;1.83;;;1.30;;
75930;SDS011;64609;47.052;15.462;2023-08-31T12:26:38;1.30;;;1.20;;
75930;SDS011;64609;47.052;15.462;2023-08-31T12:29:04;2.22;;;1.33;;
75930;SDS011;64609;47.052;15.462;2023-08-31T12:31:30;2.35;;;1.33;;
75930;SDS011;64609;47.052;15.462;2023-08-31T12:33:56;3.47;;;1.40;;
75930;SDS011;64609;47.052;15.462;2023-08-31T12:36:21;2.20;;;1.38;;
75930;SDS011;64609;47.052;15.462;2023-08-31T12:38:47;3.38;;;1.58;;
75930;SDS011;64609;47.052;15.462;2023-08-31T12:41:13;1.45;;;1.30;;
75930;SDS011;64609;47.052;15.462;2023-08-31T12:43:38;2.08;;;1.25;;
75930;SDS011;64609;47.052;15.462;2023-08-31T12:46:04;3.47;;;1.50;;
75930;SDS011;64609;47.052;15.462;2023-08-31T12:48:31;3.00;;;1.45;;
75930;SDS011;64609;47.052;15.462;2023-08-31T12:50:57;2.15;;;1.35;;
75930;SDS011;64609;47.052;15.462;2023-08-31T12:53:23;2.50;;;1.63;;
75930;SDS011;64609;47.052;15.462;2023-08-31T12:55:49;2.92;;;1.40;;
75930;SDS011;64609;47.052;15.462;2023-08-31T12:58:15;3.47;;;1.40;;
75930;SDS011;64609;47.052;15.462;2023-08-31T13:00:41;3.78;;;1.55;;
75930;SDS011;64609;47.052;15.462;2023-08-31T13:03:08;1.73;;;1.30;;
75930;SDS011;64609;47.052;15.462;2023-08-31T13:05:34;1.80;;;1.50;;
75930;SDS011;64609;47.052;15.462;2023-08-31T13:08:03;3.08;;;1.40;;
75930;SDS011;64609;47.052;15.462;2023-08-31T13:10:30;4.55;;;1.67;;
75930;SDS011;64609;47.052;15.462;2023-08-31T13:12:56;1.98;;;1.40;;
75930;SDS011;64609;47.052;15.462;2023-08-31T13:15:21;4.90;;;2.05;;
75930;SDS011;64609;47.052;15.462;2023-08-31T13:17:47;2.67;;;1.60;;
75930;SDS011;64609;47.052;15.462;2023-08-31T13:20:13;2.97;;;1.33;;
75930;SDS011;64609;47.052;15.462;2023-08-31T13:22:38;2.40;;;1.45;;
75930;SDS011;64609;47.052;15.462;2023-08-31T13:25:04;2.28;;;1.58;;
75930;SDS011;64609;47.052;15.462;2023-08-31T13:27:30;3.22;;;1.60;;
75930;SDS011;64609;47.052;15.462;2023-08-31T13:29:58;3.05;;;1.60;;
75930;SDS011;64609;47.052;15.462;2023-08-31T13:32:24;3.35;;;1.63;;
75930;SDS011;64609;47.052;15.462;2023-08-31T13:34:50;2.92;;;1.33;;
75930;SDS011;64609;47.052;15.462;2023-08-31T13:37:17;2.08;;;1.40;;
75930;SDS011;64609;47.052;15.462;2023-08-31T13:39:42;1.52;;;1.15;;
75930;SDS011;64609;47.052;15.462;2023-08-31T13:42:08;4.47;;;1.60;;
75930;SDS011;64609;47.052;15.462;2023-08-31T13:44:34;3.78;;;1.50;;
75930;SDS011;64609;47.052;15.462;2023-08-31T13:47:00;4.00;;;1.55;;
75930;SDS011;64609;47.052;15.462;2023-08-31T13:49:28;1.92;;;1.35;;
75930;SDS011;64609;47.052;15.462;2023-08-31T13:51:54;2.42;;;1.50;;
75930;SDS011;64609;47.052;15.462;2023-08-31T13:54:20;2.08;;;1.40;;
75930;SDS011;64609;47.052;15.462;2023-08-31T13:56:45;1.83;;;1.30;;
75930;SDS011;64609;47.052;15.462;2023-08-31T13:59:11;2.67;;;1.45;;
75930;SDS011;64609;47.052;15.462;2023-08-31T14:01:36;4.45;;;1.45;;
75930;SDS011;64609;47.052;15.462;2023-08-31T14:04:03;2.15;;;1.40;;
75930;SDS011;64609;47.052;15.462;2023-08-31T14:06:29;2.33;;;1.40;;
75930;SDS011;64609;47.052;15.462;2023-08-31T14:08:55;2.75;;;1.50;;
75930;SDS011;64609;47.052;15.462;2023-08-31T14:11:20;5.30;;;1.60;;
75930;SDS011;64609;47.052;15.462;2023-08-31T14:13:46;1.50;;;1.33;;
75930;SDS011;64609;47.052;15.462;2023-08-31T14:16:12;3.88;;;1.38;;
75930;SDS011;64609;47.052;15.462;2023-08-31T14:18:37;3.45;;;1.40;;
75930;SDS011;64609;47.052;15.462;2023-08-31T14:21:03;2.78;;;1.55;;
75930;SDS011;64609;47.052;15.462;2023-08-31T14:23:29;9.32;;;1.75;;
75930;SDS011;64609;47.052;15.462;2023-08-31T14:26:00;4.68;;;1.50;;
75930;SDS011;64609;47.052;15.462;2023-08-31T14:28:30;2.55;;;1.58;;
75930;SDS011;64609;47.052;15.462;2023-08-31T14:30:55;4.97;;;1.60;;
75930;SDS011;64609;47.052;15.462;2023-08-31T14:33:21;3.10;;;1.70;;
75930;SDS011;64609;47.052;15.462;2023-08-31T14:35:49;2.65;;;1.70;;
75930;SDS011;64609;47.052;15.462;2023-08-31T14:38:20;2.22;;;1.20;;
75930;SDS011;64609;47.052;15.462;2023-08-31T14:40:47;5.03;;;1.50;;
75930;SDS011;64609;47.052;15.462;2023-08-31T14:43:12;3.33;;;1.60;;
75930;SDS011;64609;47.052;15.462;2023-08-31T14:45:38;2.95;;;1.70;;
75930;SDS011;64609;47.052;15.462;2023-08-31T14:48:04;2.50;;;1.35;;
75930;SDS011;64609;47.052;15.462;2023-08-31T14:50:29;1.48;;;1.33;;
75930;SDS011;64609;47.052;15.462;2023-08-31T14:52:55;1.65;;;1.50;;
75930;SDS011;64609;47.052;15.462;2023-08-31T14:55:20;1.95;;;1.30;;
75930;SDS011;64609;47.052;15.462;2023-08-31T14:57:46;2.45;;;1.30;;
75930;SDS011;64609;47.052;15.462;2023-08-31T15:00:12;1.70;;;1.50;;
75930;SDS011;64609;47.052;15.462;2023-08-31T15:02:38;1.83;;;1.40;;
75930;SDS011;64609;47.052;15.462;2023-08-31T15:05:04;4.82;;;1.40;;
75930;SDS011;64609;47.052;15.462;2023-08-31T15:07:30;1.73;;;1.20;;
75930;SDS011;64609;47.052;15.462;2023-08-31T15:09:56;3.22;;;1.58;;